sensor_id;sensor_type;location;lat;lon;timestamp;temperature;humidity
19180;DHT22;9722;48.754;8.868;2022-10-17T00:00:04;13.00;99.90
19180;DHT22;9722;48.754;8.868;2022-10-17T00:03:25;12.90;99.90
19180;DHT22;9722;48.754;8.868;2022-10-17T00:06:45;12.80;99.90
19180;DHT22;9722;48.754;8.868;2022-10-17T00:10:06;12.70;99.90
19180;DHT22;9722;48.754;8.868;2022-10-17T00:13:28;12.60;99.90
19180;DHT22;9722;48.754;8.868;2022-10-17T00:16:48;12.60;99.90
19180;DHT22;9722;48.754;8.868;2022-10-17T00:20:09;12.50;99.90
19180;DHT22;9722;48.754;8.868;2022-10-17T00:23:30;12.50;99.90
19180;DHT22;9722;48.754;8.868;2022-10-17T00:26:51;12.40;99.90
19180;DHT22;9722;48.754;8.868;2022-10-17T00:30:13;12.40;99.90
19180;DHT22;9722;48.754;8.868;2022-10-17T00:33:34;12.40;99.90
19180;DHT22;9722;48.754;8.868;2022-10-17T00:36:55;12.40;99.90
19180;DHT22;9722;48.754;8.868;2022-10-17T00:40:16;12.40;99.90
19180;DHT22;9722;48.754;8.868;2022-10-17T00:43:53;12.40;99.90
19180;DHT22;9722;48.754;8.868;2022-10-17T00:47:18;12.40;99.90
19180;DHT22;9722;48.754;8.868;2022-10-17T00:50:43;12.40;99.90
19180;DHT22;9722;48.754;8.868;2022-10-17T00:54:05;12.40;99.90
19180;DHT22;9722;48.754;8.868;2022-10-17T00:57:29;12.40;99.90
19180;DHT22;9722;48.754;8.868;2022-10-17T01:00:50;12.30;99.90
19180;DHT22;9722;48.754;8.868;2022-10-17T01:04:11;12.20;99.90
19180;DHT22;9722;48.754;8.868;2022-10-17T01:07:32;12.20;99.90
19180;DHT22;9722;48.754;8.868;2022-10-17T01:26:26;12.10;99.90
19180;DHT22;9722;48.754;8.868;2022-10-17T01:33:46;11.90;99.90
19180;DHT22;9722;48.754;8.868;2022-10-17T01:40:51;11.90;99.90
19180;DHT22;9722;48.754;8.868;2022-10-17T01:47:49;11.70;99.90
19180;DHT22;9722;48.754;8.868;2022-10-17T01:55:26;11.60;99.90
19180;DHT22;9722;48.754;8.868;2022-10-17T01:58:55;11.50;99.90
19180;DHT22;9722;48.754;8.868;2022-10-17T02:02:17;11.50;99.90
19180;DHT22;9722;48.754;8.868;2022-10-17T02:05:40;11.40;99.90
19180;DHT22;9722;48.754;8.868;2022-10-17T02:09:19;11.40;99.90
19180;DHT22;9722;48.754;8.868;2022-10-17T02:12:47;11.30;99.90
19180;DHT22;9722;48.754;8.868;2022-10-17T02:20:23;11.20;99.90
19180;DHT22;9722;48.754;8.868;2022-10-17T02:27:42;11.10;99.90
19180;DHT22;9722;48.754;8.868;2022-10-17T02:31:18;11.10;99.90
19180;DHT22;9722;48.754;8.868;2022-10-17T02:34:44;11.00;99.90
19180;DHT22;9722;48.754;8.868;2022-10-17T02:38:07;11.00;99.90
19180;DHT22;9722;48.754;8.868;2022-10-17T02:41:29;10.90;99.90
19180;DHT22;9722;48.754;8.868;2022-10-17T02:44:52;10.90;99.90
19180;DHT22;9722;48.754;8.868;2022-10-17T02:48:25;10.90;99.90
19180;DHT22;9722;48.754;8.868;2022-10-17T02:52:04;10.80;99.90
19180;DHT22;9722;48.754;8.868;2022-10-17T02:55:33;10.80;99.90
19180;DHT22;9722;48.754;8.868;2022-10-17T02:58:57;10.80;99.90
19180;DHT22;9722;48.754;8.868;2022-10-17T03:02:18;10.80;99.90
19180;DHT22;9722;48.754;8.868;2022-10-17T03:05:39;10.80;99.90
19180;DHT22;9722;48.754;8.868;2022-10-17T03:08:59;10.90;99.90
19180;DHT22;9722;48.754;8.868;2022-10-17T03:12:20;10.90;99.90
19180;DHT22;9722;48.754;8.868;2022-10-17T03:15:41;10.90;99.90
19180;DHT22;9722;48.754;8.868;2022-10-17T03:19:02;11.00;99.90
19180;DHT22;9722;48.754;8.868;2022-10-17T03:22:23;10.90;99.90
19180;DHT22;9722;48.754;8.868;2022-10-17T03:25:43;10.90;99.90
19180;DHT22;9722;48.754;8.868;2022-10-17T03:29:04;10.90;99.90
19180;DHT22;9722;48.754;8.868;2022-10-17T03:32:24;10.90;99.90
19180;DHT22;9722;48.754;8.868;2022-10-17T03:35:45;10.80;99.90
19180;DHT22;9722;48.754;8.868;2022-10-17T03:39:05;10.80;99.90
19180;DHT22;9722;48.754;8.868;2022-10-17T03:42:26;10.80;99.90
19180;DHT22;9722;48.754;8.868;2022-10-17T03:45:46;10.80;99.90
19180;DHT22;9722;48.754;8.868;2022-10-17T03:49:08;10.80;99.90
19180;DHT22;9722;48.754;8.868;2022-10-17T03:52:29;10.90;99.90
19180;DHT22;9722;48.754;8.868;2022-10-17T03:55:49;10.90;99.90
19180;DHT22;9722;48.754;8.868;2022-10-17T03:59:13;10.90;99.90
19180;DHT22;9722;48.754;8.868;2022-10-17T04:02:34;10.90;99.90
19180;DHT22;9722;48.754;8.868;2022-10-17T04:06:00;10.80;99.90
19180;DHT22;9722;48.754;8.868;2022-10-17T04:09:21;10.70;99.90
19180;DHT22;9722;48.754;8.868;2022-10-17T04:12:42;10.70;99.90
19180;DHT22;9722;48.754;8.868;2022-10-17T04:16:06;10.70;99.90
19180;DHT22;9722;48.754;8.868;2022-10-17T04:19:27;10.60;99.90
19180;DHT22;9722;48.754;8.868;2022-10-17T04:22:48;10.60;99.90
19180;DHT22;9722;48.754;8.868;2022-10-17T04:26:08;10.60;99.90
19180;DHT22;9722;48.754;8.868;2022-10-17T04:29:29;10.60;99.90
19180;DHT22;9722;48.754;8.868;2022-10-17T04:32:49;10.60;99.90
19180;DHT22;9722;48.754;8.868;2022-10-17T04:36:13;10.60;99.90
19180;DHT22;9722;48.754;8.868;2022-10-17T04:39:33;10.60;99.90
19180;DHT22;9722;48.754;8.868;2022-10-17T04:42:54;10.60;99.90
19180;DHT22;9722;48.754;8.868;2022-10-17T04:46:15;10.70;99.90
19180;DHT22;9722;48.754;8.868;2022-10-17T04:49:35;10.70;99.90
19180;DHT22;9722;48.754;8.868;2022-10-17T04:52:56;10.70;99.90
19180;DHT22;9722;48.754;8.868;2022-10-17T04:56:19;10.80;99.90
19180;DHT22;9722;48.754;8.868;2022-10-17T04:59:40;10.80;99.90
19180;DHT22;9722;48.754;8.868;2022-10-17T05:03:01;10.80;99.90
19180;DHT22;9722;48.754;8.868;2022-10-17T05:06:23;10.80;99.90
19180;DHT22;9722;48.754;8.868;2022-10-17T05:09:44;10.70;99.90
19180;DHT22;9722;48.754;8.868;2022-10-17T05:13:05;10.70;99.90
19180;DHT22;9722;48.754;8.868;2022-10-17T05:16:26;10.70;99.90
19180;DHT22;9722;48.754;8.868;2022-10-17T05:19:48;10.70;99.90
19180;DHT22;9722;48.754;8.868;2022-10-17T05:23:08;10.70;99.90
19180;DHT22;9722;48.754;8.868;2022-10-17T05:26:29;10.60;99.90
19180;DHT22;9722;48.754;8.868;2022-10-17T05:29:49;10.60;99.90
19180;DHT22;9722;48.754;8.868;2022-10-17T05:33:10;10.50;99.90
19180;DHT22;9722;48.754;8.868;2022-10-17T05:36:30;10.50;99.90
19180;DHT22;9722;48.754;8.868;2022-10-17T05:39:51;10.50;99.90
19180;DHT22;9722;48.754;8.868;2022-10-17T05:43:11;10.40;99.90
19180;DHT22;9722;48.754;8.868;2022-10-17T05:46:32;10.40;99.90
19180;DHT22;9722;48.754;8.868;2022-10-17T05:49:52;10.30;99.90
19180;DHT22;9722;48.754;8.868;2022-10-17T05:53:13;10.40;99.90
19180;DHT22;9722;48.754;8.868;2022-10-17T05:56:34;10.40;99.90
19180;DHT22;9722;48.754;8.868;2022-10-17T05:59:54;10.40;99.90
19180;DHT22;9722;48.754;8.868;2022-10-17T06:03:15;10.40;99.90
19180;DHT22;9722;48.754;8.868;2022-10-17T06:06:37;10.40;99.90
19180;DHT22;9722;48.754;8.868;2022-10-17T06:09:57;10.50;99.90
19180;DHT22;9722;48.754;8.868;2022-10-17T06:13:18;10.60;99.90
19180;DHT22;9722;48.754;8.868;2022-10-17T06:16:39;10.70;99.90
19180;DHT22;9722;48.754;8.868;2022-10-17T06:19:59;10.80;99.90
19180;DHT22;9722;48.754;8.868;2022-10-17T06:23:20;10.90;99.90
19180;DHT22;9722;48.754;8.868;2022-10-17T06:26:40;11.00;99.90
19180;DHT22;9722;48.754;8.868;2022-10-17T06:30:01;11.00;99.90
19180;DHT22;9722;48.754;8.868;2022-10-17T06:33:22;11.00;99.90
19180;DHT22;9722;48.754;8.868;2022-10-17T06:36:42;11.10;99.90
19180;DHT22;9722;48.754;8.868;2022-10-17T06:40:04;11.20;99.90
19180;DHT22;9722;48.754;8.868;2022-10-17T06:43:26;11.30;99.90
19180;DHT22;9722;48.754;8.868;2022-10-17T06:46:47;11.40;99.90
19180;DHT22;9722;48.754;8.868;2022-10-17T06:50:07;11.70;99.90
19180;DHT22;9722;48.754;8.868;2022-10-17T06:53:32;12.50;99.90
19180;DHT22;9722;48.754;8.868;2022-10-17T06:56:53;13.30;99.90
19180;DHT22;9722;48.754;8.868;2022-10-17T07:00:15;14.20;99.90
19180;DHT22;9722;48.754;8.868;2022-10-17T07:03:36;15.00;99.90
19180;DHT22;9722;48.754;8.868;2022-10-17T07:06:56;15.70;99.90
19180;DHT22;9722;48.754;8.868;2022-10-17T07:10:17;16.40;99.90
19180;DHT22;9722;48.754;8.868;2022-10-17T07:13:38;17.00;98.70
19180;DHT22;9722;48.754;8.868;2022-10-17T07:16:59;17.50;96.70
19180;DHT22;9722;48.754;8.868;2022-10-17T07:20:19;17.80;94.90
19180;DHT22;9722;48.754;8.868;2022-10-17T07:23:40;18.30;93.30
19180;DHT22;9722;48.754;8.868;2022-10-17T07:27:01;18.80;91.70
19180;DHT22;9722;48.754;8.868;2022-10-17T07:30:22;19.30;90.10
19180;DHT22;9722;48.754;8.868;2022-10-17T07:33:43;19.60;87.40
19180;DHT22;9722;48.754;8.868;2022-10-17T07:37:04;20.20;85.00
19180;DHT22;9722;48.754;8.868;2022-10-17T07:40:26;20.60;82.10
19180;DHT22;9722;48.754;8.868;2022-10-17T07:43:46;21.00;79.40
19180;DHT22;9722;48.754;8.868;2022-10-17T07:47:07;21.40;76.50
19180;DHT22;9722;48.754;8.868;2022-10-17T07:50:28;21.40;74.40
19180;DHT22;9722;48.754;8.868;2022-10-17T07:53:48;21.60;74.10
19180;DHT22;9722;48.754;8.868;2022-10-17T07:57:09;21.90;72.80
19180;DHT22;9722;48.754;8.868;2022-10-17T08:00:29;22.30;71.80
19180;DHT22;9722;48.754;8.868;2022-10-17T08:03:50;22.70;70.50
19180;DHT22;9722;48.754;8.868;2022-10-17T08:07:10;23.30;69.60
19180;DHT22;9722;48.754;8.868;2022-10-17T08:10:31;24.20;67.80
19180;DHT22;9722;48.754;8.868;2022-10-17T08:13:52;24.80;65.70
19180;DHT22;9722;48.754;8.868;2022-10-17T08:17:12;25.30;64.30
19180;DHT22;9722;48.754;8.868;2022-10-17T08:20:33;25.60;63.20
19180;DHT22;9722;48.754;8.868;2022-10-17T08:23:53;26.00;61.30
19180;DHT22;9722;48.754;8.868;2022-10-17T08:27:14;26.60;60.30
19180;DHT22;9722;48.754;8.868;2022-10-17T08:30:40;27.20;59.10
19180;DHT22;9722;48.754;8.868;2022-10-17T08:34:01;27.80;58.00
19180;DHT22;9722;48.754;8.868;2022-10-17T08:37:22;28.60;57.20
19180;DHT22;9722;48.754;8.868;2022-10-17T08:40:42;29.50;55.90
19180;DHT22;9722;48.754;8.868;2022-10-17T08:48:04;31.10;52.30
19180;DHT22;9722;48.754;8.868;2022-10-17T08:51:32;31.80;51.10
19180;DHT22;9722;48.754;8.868;2022-10-17T08:54:54;32.50;49.60
19180;DHT22;9722;48.754;8.868;2022-10-17T08:58:22;33.10;48.80
19180;DHT22;9722;48.754;8.868;2022-10-17T09:06:09;32.70;47.60
19180;DHT22;9722;48.754;8.868;2022-10-17T09:13:51;32.00;48.40
19180;DHT22;9722;48.754;8.868;2022-10-17T09:17:29;31.90;48.90
19180;DHT22;9722;48.754;8.868;2022-10-17T09:21:08;31.80;48.90
19180;DHT22;9722;48.754;8.868;2022-10-17T09:24:38;31.90;48.80
19180;DHT22;9722;48.754;8.868;2022-10-17T09:28:14;32.10;48.30
19180;DHT22;9722;48.754;8.868;2022-10-17T09:31:43;32.50;47.80
19180;DHT22;9722;48.754;8.868;2022-10-17T09:35:11;33.00;46.40
19180;DHT22;9722;48.754;8.868;2022-10-17T09:38:44;33.50;45.60
19180;DHT22;9722;48.754;8.868;2022-10-17T09:42:04;33.90;45.50
19180;DHT22;9722;48.754;8.868;2022-10-17T09:45:26;34.30;44.80
19180;DHT22;9722;48.754;8.868;2022-10-17T09:48:53;34.80;43.80
19180;DHT22;9722;48.754;8.868;2022-10-17T09:52:21;34.90;42.60
19180;DHT22;9722;48.754;8.868;2022-10-17T09:55:50;34.60;43.10
19180;DHT22;9722;48.754;8.868;2022-10-17T09:59:32;34.40;43.30
19180;DHT22;9722;48.754;8.868;2022-10-17T10:03:13;34.10;42.40
19180;DHT22;9722;48.754;8.868;2022-10-17T10:06:34;34.10;43.40
19180;DHT22;9722;48.754;8.868;2022-10-17T10:09:57;34.30;42.00
19180;DHT22;9722;48.754;8.868;2022-10-17T10:13:18;34.60;40.90
19180;DHT22;9722;48.754;8.868;2022-10-17T10:16:42;34.90;40.90
19180;DHT22;9722;48.754;8.868;2022-10-17T10:20:29;35.60;40.20
19180;DHT22;9722;48.754;8.868;2022-10-17T10:24:20;36.40;39.90
19180;DHT22;9722;48.754;8.868;2022-10-17T10:27:45;37.30;38.50
19180;DHT22;9722;48.754;8.868;2022-10-17T10:31:07;37.70;37.50
19180;DHT22;9722;48.754;8.868;2022-10-17T10:34:29;38.20;36.40
19180;DHT22;9722;48.754;8.868;2022-10-17T10:37:54;38.40;35.80
19180;DHT22;9722;48.754;8.868;2022-10-17T10:41:15;38.40;35.20
19180;DHT22;9722;48.754;8.868;2022-10-17T10:44:37;38.30;35.40
19180;DHT22;9722;48.754;8.868;2022-10-17T10:48:00;38.20;34.80
19180;DHT22;9722;48.754;8.868;2022-10-17T10:51:39;38.00;34.80
19180;DHT22;9722;48.754;8.868;2022-10-17T10:55:16;37.50;34.70
19180;DHT22;9722;48.754;8.868;2022-10-17T10:58:53;37.50;34.70
19180;DHT22;9722;48.754;8.868;2022-10-17T11:02:15;37.70;34.80
19180;DHT22;9722;48.754;8.868;2022-10-17T11:13:08;39.00;33.90
19180;DHT22;9722;48.754;8.868;2022-10-17T11:16:38;39.40;33.40
19180;DHT22;9722;48.754;8.868;2022-10-17T11:27:10;39.20;31.60
19180;DHT22;9722;48.754;8.868;2022-10-17T11:30:47;39.20;31.50
19180;DHT22;9722;48.754;8.868;2022-10-17T11:37:36;39.00;31.10
19180;DHT22;9722;48.754;8.868;2022-10-17T11:40:59;39.00;30.30
19180;DHT22;9722;48.754;8.868;2022-10-17T11:44:38;38.50;30.00
19180;DHT22;9722;48.754;8.868;2022-10-17T11:48:20;38.00;30.80
19180;DHT22;9722;48.754;8.868;2022-10-17T11:51:49;37.80;31.60
19180;DHT22;9722;48.754;8.868;2022-10-17T11:55:15;38.10;31.60
19180;DHT22;9722;48.754;8.868;2022-10-17T12:02:16;38.10;30.90
19180;DHT22;9722;48.754;8.868;2022-10-17T12:05:43;38.10;31.20
19180;DHT22;9722;48.754;8.868;2022-10-17T12:12:51;39.00;31.40
19180;DHT22;9722;48.754;8.868;2022-10-17T12:19:38;40.80;29.40
19180;DHT22;9722;48.754;8.868;2022-10-17T12:26:31;42.00;28.30
19180;DHT22;9722;48.754;8.868;2022-10-17T12:30:02;41.70;27.70
19180;DHT22;9722;48.754;8.868;2022-10-17T12:33:32;41.70;27.90
19180;DHT22;9722;48.754;8.868;2022-10-17T12:36:54;42.10;28.50
19180;DHT22;9722;48.754;8.868;2022-10-17T12:43:54;42.90;27.40
19180;DHT22;9722;48.754;8.868;2022-10-17T12:54:20;42.60;27.20
19180;DHT22;9722;48.754;8.868;2022-10-17T12:57:54;42.70;28.50
19180;DHT22;9722;48.754;8.868;2022-10-17T13:01:20;43.00;28.90
19180;DHT22;9722;48.754;8.868;2022-10-17T13:04:41;43.30;28.70
19180;DHT22;9722;48.754;8.868;2022-10-17T13:08:05;43.50;28.90
19180;DHT22;9722;48.754;8.868;2022-10-17T13:11:28;43.60;28.80
19180;DHT22;9722;48.754;8.868;2022-10-17T13:14:50;43.70;28.60
19180;DHT22;9722;48.754;8.868;2022-10-17T13:18:18;43.80;28.40
19180;DHT22;9722;48.754;8.868;2022-10-17T13:21:49;43.90;27.60
19180;DHT22;9722;48.754;8.868;2022-10-17T13:25:15;43.60;26.40
19180;DHT22;9722;48.754;8.868;2022-10-17T13:28:35;43.30;26.40
19180;DHT22;9722;48.754;8.868;2022-10-17T13:32:01;42.70;26.70
19180;DHT22;9722;48.754;8.868;2022-10-17T13:35:34;42.00;27.40
19180;DHT22;9722;48.754;8.868;2022-10-17T13:38:59;41.20;27.30
19180;DHT22;9722;48.754;8.868;2022-10-17T13:42:27;40.70;28.00
19180;DHT22;9722;48.754;8.868;2022-10-17T13:45:58;40.30;28.60
19180;DHT22;9722;48.754;8.868;2022-10-17T13:49:25;39.50;28.50
19180;DHT22;9722;48.754;8.868;2022-10-17T13:52:48;38.80;29.40
19180;DHT22;9722;48.754;8.868;2022-10-17T13:59:38;38.20;30.30
19180;DHT22;9722;48.754;8.868;2022-10-17T14:02:59;38.30;30.00
19180;DHT22;9722;48.754;8.868;2022-10-17T14:06:24;38.00;30.00
19180;DHT22;9722;48.754;8.868;2022-10-17T14:09:45;37.80;30.40
19180;DHT22;9722;48.754;8.868;2022-10-17T14:13:15;37.60;31.10
19180;DHT22;9722;48.754;8.868;2022-10-17T14:16:40;37.70;31.80
19180;DHT22;9722;48.754;8.868;2022-10-17T14:20:03;37.80;32.10
19180;DHT22;9722;48.754;8.868;2022-10-17T14:23:36;37.70;32.30
19180;DHT22;9722;48.754;8.868;2022-10-17T14:26:58;37.50;32.30
19180;DHT22;9722;48.754;8.868;2022-10-17T14:33:47;37.10;32.60
19180;DHT22;9722;48.754;8.868;2022-10-17T14:44:39;36.60;33.30
19180;DHT22;9722;48.754;8.868;2022-10-17T14:48:12;36.30;33.20
19180;DHT22;9722;48.754;8.868;2022-10-17T14:51:34;36.00;33.00
19180;DHT22;9722;48.754;8.868;2022-10-17T14:54:55;35.50;33.40
19180;DHT22;9722;48.754;8.868;2022-10-17T14:58:21;35.00;33.60
19180;DHT22;9722;48.754;8.868;2022-10-17T15:01:41;34.60;34.00
19180;DHT22;9722;48.754;8.868;2022-10-17T15:05:02;34.20;34.60
19180;DHT22;9722;48.754;8.868;2022-10-17T15:08:23;33.60;34.90
19180;DHT22;9722;48.754;8.868;2022-10-17T15:11:43;32.70;35.70
19180;DHT22;9722;48.754;8.868;2022-10-17T15:15:04;31.50;36.80
19180;DHT22;9722;48.754;8.868;2022-10-17T15:18:25;30.50;40.10
19180;DHT22;9722;48.754;8.868;2022-10-17T15:21:45;29.60;40.80
19180;DHT22;9722;48.754;8.868;2022-10-17T15:25:06;28.70;42.00
19180;DHT22;9722;48.754;8.868;2022-10-17T15:28:27;28.00;43.40
19180;DHT22;9722;48.754;8.868;2022-10-17T15:31:47;27.40;44.40
19180;DHT22;9722;48.754;8.868;2022-10-17T15:35:08;26.90;45.30
19180;DHT22;9722;48.754;8.868;2022-10-17T15:38:29;26.50;46.10
19180;DHT22;9722;48.754;8.868;2022-10-17T15:41:49;26.00;47.10
19180;DHT22;9722;48.754;8.868;2022-10-17T15:45:11;25.70;48.00
19180;DHT22;9722;48.754;8.868;2022-10-17T15:48:32;25.30;48.70
19180;DHT22;9722;48.754;8.868;2022-10-17T15:51:52;25.00;49.50
19180;DHT22;9722;48.754;8.868;2022-10-17T15:55:13;24.70;50.00
19180;DHT22;9722;48.754;8.868;2022-10-17T15:58:36;24.40;51.20
19180;DHT22;9722;48.754;8.868;2022-10-17T16:01:59;24.20;52.10
19180;DHT22;9722;48.754;8.868;2022-10-17T16:05:22;23.90;52.80
19180;DHT22;9722;48.754;8.868;2022-10-17T16:08:46;23.60;53.10
19180;DHT22;9722;48.754;8.868;2022-10-17T16:12:12;23.30;53.50
19180;DHT22;9722;48.754;8.868;2022-10-17T16:15:34;23.10;54.50
19180;DHT22;9722;48.754;8.868;2022-10-17T16:18:55;22.80;55.30
19180;DHT22;9722;48.754;8.868;2022-10-17T16:22:40;22.50;56.30
19180;DHT22;9722;48.754;8.868;2022-10-17T16:26:01;22.20;57.30
19180;DHT22;9722;48.754;8.868;2022-10-17T16:29:21;21.90;57.50
19180;DHT22;9722;48.754;8.868;2022-10-17T16:32:42;21.60;58.10
19180;DHT22;9722;48.754;8.868;2022-10-17T16:36:03;21.40;58.60
19180;DHT22;9722;48.754;8.868;2022-10-17T16:39:23;21.20;59.20
19180;DHT22;9722;48.754;8.868;2022-10-17T16:42:44;21.00;59.70
19180;DHT22;9722;48.754;8.868;2022-10-17T16:46:04;20.80;60.30
19180;DHT22;9722;48.754;8.868;2022-10-17T16:49:25;20.60;61.60
19180;DHT22;9722;48.754;8.868;2022-10-17T16:52:45;20.50;63.50
19180;DHT22;9722;48.754;8.868;2022-10-17T16:56:06;20.30;65.10
19180;DHT22;9722;48.754;8.868;2022-10-17T16:59:27;20.00;66.00
19180;DHT22;9722;48.754;8.868;2022-10-17T17:02:48;19.80;67.00
19180;DHT22;9722;48.754;8.868;2022-10-17T17:06:12;19.60;68.30
19180;DHT22;9722;48.754;8.868;2022-10-17T17:09:33;19.40;69.60
19180;DHT22;9722;48.754;8.868;2022-10-17T17:12:53;19.20;70.30
19180;DHT22;9722;48.754;8.868;2022-10-17T17:16:19;18.90;71.30
19180;DHT22;9722;48.754;8.868;2022-10-17T17:19:42;18.70;72.20
19180;DHT22;9722;48.754;8.868;2022-10-17T17:23:03;18.60;73.00
19180;DHT22;9722;48.754;8.868;2022-10-17T17:26:25;18.40;73.90
19180;DHT22;9722;48.754;8.868;2022-10-17T17:29:46;18.20;74.50
19180;DHT22;9722;48.754;8.868;2022-10-17T17:33:06;18.10;75.20
19180;DHT22;9722;48.754;8.868;2022-10-17T17:36:32;17.90;75.60
19180;DHT22;9722;48.754;8.868;2022-10-17T17:39:53;17.80;76.30
19180;DHT22;9722;48.754;8.868;2022-10-17T17:43:13;17.70;76.90
19180;DHT22;9722;48.754;8.868;2022-10-17T17:46:34;17.60;77.70
19180;DHT22;9722;48.754;8.868;2022-10-17T17:49:55;17.40;78.10
19180;DHT22;9722;48.754;8.868;2022-10-17T17:53:15;17.20;78.60
19180;DHT22;9722;48.754;8.868;2022-10-17T17:56:37;17.10;79.50
19180;DHT22;9722;48.754;8.868;2022-10-17T17:59:57;17.00;80.30
19180;DHT22;9722;48.754;8.868;2022-10-17T18:03:18;16.90;81.00
19180;DHT22;9722;48.754;8.868;2022-10-17T18:06:38;16.90;81.80
19180;DHT22;9722;48.754;8.868;2022-10-17T18:09:59;16.80;82.50
19180;DHT22;9722;48.754;8.868;2022-10-17T18:13:19;16.60;83.10
19180;DHT22;9722;48.754;8.868;2022-10-17T18:16:40;16.50;84.10
19180;DHT22;9722;48.754;8.868;2022-10-17T18:20:01;16.40;85.30
19180;DHT22;9722;48.754;8.868;2022-10-17T18:23:22;16.30;86.40
19180;DHT22;9722;48.754;8.868;2022-10-17T18:26:43;16.20;86.90
19180;DHT22;9722;48.754;8.868;2022-10-17T18:30:04;16.00;88.30
19180;DHT22;9722;48.754;8.868;2022-10-17T18:33:25;15.90;89.60
19180;DHT22;9722;48.754;8.868;2022-10-17T18:36:45;15.80;90.50
19180;DHT22;9722;48.754;8.868;2022-10-17T18:40:06;15.70;91.20
19180;DHT22;9722;48.754;8.868;2022-10-17T18:43:27;15.60;91.90
19180;DHT22;9722;48.754;8.868;2022-10-17T18:46:47;15.50;92.50
19180;DHT22;9722;48.754;8.868;2022-10-17T18:50:08;15.50;93.20
19180;DHT22;9722;48.754;8.868;2022-10-17T18:53:29;15.50;93.90
19180;DHT22;9722;48.754;8.868;2022-10-17T18:56:51;15.50;94.20
19180;DHT22;9722;48.754;8.868;2022-10-17T19:00:12;15.50;94.60
19180;DHT22;9722;48.754;8.868;2022-10-17T19:03:33;15.40;94.90
19180;DHT22;9722;48.754;8.868;2022-10-17T19:06:53;15.30;95.40
19180;DHT22;9722;48.754;8.868;2022-10-17T19:10:14;15.30;96.00
19180;DHT22;9722;48.754;8.868;2022-10-17T19:13:35;15.20;96.50
19180;DHT22;9722;48.754;8.868;2022-10-17T19:16:56;15.20;97.10
19180;DHT22;9722;48.754;8.868;2022-10-17T19:20:16;15.20;97.50
19180;DHT22;9722;48.754;8.868;2022-10-17T19:23:37;15.20;97.90
19180;DHT22;9722;48.754;8.868;2022-10-17T19:26:58;15.20;98.30
19180;DHT22;9722;48.754;8.868;2022-10-17T19:30:22;15.10;98.60
19180;DHT22;9722;48.754;8.868;2022-10-17T19:33:42;15.00;98.80
19180;DHT22;9722;48.754;8.868;2022-10-17T19:37:03;15.00;99.00
19180;DHT22;9722;48.754;8.868;2022-10-17T19:40:23;15.00;99.10
19180;DHT22;9722;48.754;8.868;2022-10-17T19:43:44;14.90;99.10
19180;DHT22;9722;48.754;8.868;2022-10-17T19:47:04;14.80;99.30
19180;DHT22;9722;48.754;8.868;2022-10-17T19:50:25;14.70;99.40
19180;DHT22;9722;48.754;8.868;2022-10-17T19:53:45;14.70;99.70
19180;DHT22;9722;48.754;8.868;2022-10-17T19:57:06;14.60;99.90
19180;DHT22;9722;48.754;8.868;2022-10-17T20:00:27;14.60;99.90
19180;DHT22;9722;48.754;8.868;2022-10-17T20:03:47;14.50;99.90
19180;DHT22;9722;48.754;8.868;2022-10-17T20:07:08;14.50;99.90
19180;DHT22;9722;48.754;8.868;2022-10-17T20:10:29;14.40;99.90
19180;DHT22;9722;48.754;8.868;2022-10-17T20:13:50;14.30;99.90
19180;DHT22;9722;48.754;8.868;2022-10-17T20:17:11;14.20;99.90
19180;DHT22;9722;48.754;8.868;2022-10-17T20:20:35;14.10;99.90
19180;DHT22;9722;48.754;8.868;2022-10-17T20:23:58;14.10;99.90
19180;DHT22;9722;48.754;8.868;2022-10-17T20:27:18;14.00;99.90
19180;DHT22;9722;48.754;8.868;2022-10-17T20:30:43;13.90;99.90
19180;DHT22;9722;48.754;8.868;2022-10-17T20:34:05;13.80;99.90
19180;DHT22;9722;48.754;8.868;2022-10-17T20:37:25;13.70;99.90
19180;DHT22;9722;48.754;8.868;2022-10-17T20:40:46;13.60;99.90
19180;DHT22;9722;48.754;8.868;2022-10-17T20:44:07;13.60;99.90
19180;DHT22;9722;48.754;8.868;2022-10-17T20:47:27;13.50;99.90
19180;DHT22;9722;48.754;8.868;2022-10-17T20:50:48;13.50;99.90
19180;DHT22;9722;48.754;8.868;2022-10-17T20:54:09;13.50;99.90
19180;DHT22;9722;48.754;8.868;2022-10-17T20:57:31;13.50;99.90
19180;DHT22;9722;48.754;8.868;2022-10-17T21:00:51;13.50;99.90
19180;DHT22;9722;48.754;8.868;2022-10-17T21:04:12;13.50;99.90
19180;DHT22;9722;48.754;8.868;2022-10-17T21:07:33;13.50;99.90
19180;DHT22;9722;48.754;8.868;2022-10-17T21:10:54;13.60;99.90
19180;DHT22;9722;48.754;8.868;2022-10-17T21:14:14;13.70;99.90
19180;DHT22;9722;48.754;8.868;2022-10-17T21:17:35;13.70;99.90
19180;DHT22;9722;48.754;8.868;2022-10-17T21:24:29;13.70;99.90
19180;DHT22;9722;48.754;8.868;2022-10-17T21:27:51;13.70;99.90
19180;DHT22;9722;48.754;8.868;2022-10-17T21:31:18;13.70;99.90
19180;DHT22;9722;48.754;8.868;2022-10-17T21:34:39;13.60;99.90
19180;DHT22;9722;48.754;8.868;2022-10-17T21:37:59;13.60;99.90
19180;DHT22;9722;48.754;8.868;2022-10-17T21:41:25;13.60;99.90
19180;DHT22;9722;48.754;8.868;2022-10-17T21:44:45;13.60;99.90
19180;DHT22;9722;48.754;8.868;2022-10-17T21:48:06;13.60;99.90
19180;DHT22;9722;48.754;8.868;2022-10-17T21:51:27;13.60;99.90
19180;DHT22;9722;48.754;8.868;2022-10-17T21:54:48;13.60;99.90
19180;DHT22;9722;48.754;8.868;2022-10-17T21:58:08;13.50;99.90
19180;DHT22;9722;48.754;8.868;2022-10-17T22:01:32;13.60;99.90
19180;DHT22;9722;48.754;8.868;2022-10-17T22:04:53;13.60;99.90
19180;DHT22;9722;48.754;8.868;2022-10-17T22:08:14;13.50;99.90
19180;DHT22;9722;48.754;8.868;2022-10-17T22:11:35;13.50;99.90
19180;DHT22;9722;48.754;8.868;2022-10-17T22:14:55;13.50;99.90
19180;DHT22;9722;48.754;8.868;2022-10-17T22:18:16;13.50;99.90
19180;DHT22;9722;48.754;8.868;2022-10-17T22:21:36;13.40;99.90
19180;DHT22;9722;48.754;8.868;2022-10-17T22:24:57;13.40;99.90
19180;DHT22;9722;48.754;8.868;2022-10-17T22:28:18;13.40;99.90
19180;DHT22;9722;48.754;8.868;2022-10-17T22:31:39;13.40;99.90
19180;DHT22;9722;48.754;8.868;2022-10-17T22:34:59;13.30;99.90
19180;DHT22;9722;48.754;8.868;2022-10-17T22:38:20;13.30;99.90
19180;DHT22;9722;48.754;8.868;2022-10-17T22:41:40;13.30;99.90
19180;DHT22;9722;48.754;8.868;2022-10-17T22:45:01;13.30;99.90
19180;DHT22;9722;48.754;8.868;2022-10-17T22:48:23;13.20;99.90
19180;DHT22;9722;48.754;8.868;2022-10-17T22:51:43;13.20;99.90
19180;DHT22;9722;48.754;8.868;2022-10-17T22:55:05;13.20;99.90
19180;DHT22;9722;48.754;8.868;2022-10-17T22:58:27;13.20;99.90
19180;DHT22;9722;48.754;8.868;2022-10-17T23:01:48;13.10;99.90
19180;DHT22;9722;48.754;8.868;2022-10-17T23:05:09;13.10;99.90
19180;DHT22;9722;48.754;8.868;2022-10-17T23:08:30;13.10;99.90
19180;DHT22;9722;48.754;8.868;2022-10-17T23:11:51;13.10;99.90
19180;DHT22;9722;48.754;8.868;2022-10-17T23:15:11;13.00;99.90
19180;DHT22;9722;48.754;8.868;2022-10-17T23:18:32;13.00;99.90
19180;DHT22;9722;48.754;8.868;2022-10-17T23:21:52;13.00;99.90
19180;DHT22;9722;48.754;8.868;2022-10-17T23:25:13;13.00;99.90
19180;DHT22;9722;48.754;8.868;2022-10-17T23:28:33;12.90;99.90
19180;DHT22;9722;48.754;8.868;2022-10-17T23:31:54;13.00;99.90